Time;durP1;ratioP1;P1;durP2;ratioP2;P2;SDS_P1;SDS_P2;PMS_P1;PMS_P2;Temp;Humidity;BMP_temperature;BMP_pressure;BME280_temperature;BME280_humidity;BME280_pressure;Samples;Min_cycle;Max_cycle;Signal;HPM_P1;HPM_P2
2022/03/12 00:02:00;;;;;;;8.57;5.47;;;-0.30;46.80;;;-1.61;34.33;95774.19;5031509;28;20235;-84
2022/03/12 00:04:30;;;;;;;9.45;5.50;;;-0.30;46.80;;;-1.65;33.62;95757.28;5047389;28;20299;-84
2022/03/12 00:06:58;;;;;;;9.25;5.82;;;-0.30;46.80;;;-1.61;33.67;95758.75;5028066;28;20293;-84
2022/03/12 00:09:25;;;;;;;9.10;5.63;;;-0.30;46.80;;;-1.64;33.72;95761.50;5017686;28;20632;-84
2022/03/12 00:11:55;;;;;;;8.90;5.47;;;-0.30;46.90;;;-1.63;33.83;95763.97;5032363;28;20203;-84
2022/03/12 00:14:25;;;;;;;9.15;5.78;;;-0.30;46.90;;;-1.61;34.00;95758.75;5054642;28;20231;-83
2022/03/12 00:16:54;;;;;;;9.43;5.80;;;-0.20;47.10;;;-1.67;34.05;95754.81;5036709;28;20204;-83
2022/03/12 00:19:23;;;;;;;11.38;5.80;;;-0.30;47.10;;;-1.64;33.93;95748.66;5045556;28;20211;-83
2022/03/12 00:21:52;;;;;;;8.98;5.70;;;-0.30;47.20;;;-1.64;34.17;95748.66;5021399;28;20643;-83
2022/03/12 00:24:19;;;;;;;9.75;6.13;;;-0.30;47.20;;;-1.62;33.92;95734.75;5018045;28;20260;-83
2022/03/12 00:26:50;;;;;;;9.93;6.25;;;-0.30;47.30;;;-1.61;34.23;95743.31;5032308;28;20200;-84
2022/03/12 00:29:20;;;;;;;9.02;6.32;;;-0.30;47.40;;;-1.61;34.14;95736.41;5037694;28;20220;-83
2022/03/12 00:31:53;;;;;;;10.27;6.65;;;-0.30;47.80;;;-1.60;34.58;95716.66;5035049;28;20204;-84
2022/03/12 00:34:21;;;;;;;9.90;6.63;;;-0.30;47.80;;;-1.54;34.38;95720.59;5034529;28;20216;-83
2022/03/12 00:36:48;;;;;;;10.80;6.38;;;-0.30;47.90;;;-1.51;34.96;95720.41;5011022;28;20303;-84
2022/03/12 00:39:16;;;;;;;9.27;6.40;;;-0.20;48.00;;;-1.47;34.60;95709.00;5020261;28;20277;-84
2022/03/12 00:41:43;;;;;;;9.95;6.20;;;-0.20;48.20;;;-1.43;34.63;95709.63;5001184;28;20205;-84
2022/03/12 00:44:14;;;;;;;10.25;6.15;;;-0.20;48.10;;;-1.39;34.67;95700.78;5017847;28;20682;-84
2022/03/12 00:46:41;;;;;;;9.38;6.30;;;-0.20;48.10;;;-1.35;34.47;95702.25;5034343;28;20218;-84
2022/03/12 00:49:08;;;;;;;10.48;6.72;;;-0.10;48.10;;;-1.36;34.71;95696.25;5017886;28;20256;-84
2022/03/12 00:51:38;;;;;;;10.32;6.30;;;-0.10;48.30;;;-1.33;34.81;95696.06;5033538;28;20224;-84
2022/03/12 00:54:06;;;;;;;10.82;6.05;;;-0.10;48.30;;;-1.30;34.63;95705.34;5031336;28;20217;-83
2022/03/12 00:56:39;;;;;;;10.57;6.70;;;-0.10;48.10;;;-1.36;34.83;95688.53;5008919;28;20759;-83
2022/03/12 00:59:08;;;;;;;11.45;6.68;;;-0.10;48.10;;;-1.27;34.67;95710.28;5018977;28;20785;-84
2022/03/12 01:01:35;;;;;;;12.38;7.25;;;0.00;48.30;;;-1.23;34.80;95705.75;5001509;28;20196;-84
2022/03/12 01:04:04;;;;;;;8.82;6.05;;;0.00;49.60;;;-1.24;34.68;95709.28;5049858;28;20646;-83
2022/03/12 01:06:34;;;;;;;9.27;6.05;;;0.00;48.10;;;-1.24;34.73;95714.44;5066484;28;20196;-84
2022/03/12 01:09:02;;;;;;;10.65;6.03;;;0.00;48.10;;;-1.33;34.52;95711.50;5017814;28;20303;-83
2022/03/12 01:11:30;;;;;;;10.20;6.25;;;0.00;48.00;;;-1.25;34.45;95715.34;5031837;28;20200;-84
2022/03/12 01:13:57;;;;;;;8.43;5.85;;;0.00;47.90;;;-1.37;34.60;95706.66;5020816;28;20224;-83
2022/03/12 01:16:24;;;;;;;10.68;6.35;;;0.00;48.50;;;-1.27;34.28;95712.03;5053740;28;20196;-83
2022/03/12 01:18:51;;;;;;;9.15;5.85;;;0.00;47.90;;;-1.30;34.39;95710.50;5021000;28;20227;-83
2022/03/12 01:21:20;;;;;;;9.52;5.90;;;0.00;47.90;;;-1.30;34.56;95708.72;5027629;28;20228;-84
2022/03/12 01:23:49;;;;;;;9.88;6.60;;;0.00;47.90;;;-1.27;35.04;95704.31;5048143;28;20224;-84
2022/03/12 01:26:20;;;;;;;10.25;5.95;;;0.00;48.20;;;-1.24;34.65;95709.28;5016947;28;20247;-83
2022/03/12 01:28:47;;;;;;;15.23;7.38;;;0.00;48.10;;;-1.25;34.28;95703.28;5024814;28;20754;-84
2022/03/12 01:31:16;;;;;;;10.88;6.43;;;0.00;48.10;;;-1.24;34.64;95702.38;5030063;28;20655;-84
2022/03/12 01:33:44;;;;;;;13.38;6.35;;;0.00;48.10;;;-1.26;34.09;95693.09;5036807;28;20216;-84
2022/03/12 01:36:13;;;;;;;9.85;5.80;;;0.00;48.00;;;-1.33;34.91;95696.06;5036315;28;20196;-84
2022/03/12 01:38:53;;;;;;;9.77;6.35;;;0.00;48.00;;;-1.32;34.83;95696.88;5032501;28;20223;-84
2022/03/12 01:41:35;;;;;;;10.98;5.60;;;0.00;48.30;;;-1.33;34.83;95693.50;5017792;28;20339;-84
2022/03/12 01:44:05;;;;;;;10.32;5.88;;;0.00;48.30;;;-1.32;34.64;95681.44;5017560;28;20220;-84
2022/03/12 01:46:45;;;;;;;8.27;5.55;;;0.00;48.10;;;-1.33;34.96;95683.22;5029858;28;20246;-84
2022/03/12 01:49:22;;;;;;;8.63;5.50;;;0.00;48.20;;;-1.31;34.85;95680.53;5034026;28;20219;-84
2022/03/12 01:51:52;;;;;;;8.98;5.93;;;0.00;48.20;;;-1.34;34.63;95680.75;5018699;28;20291;-84
2022/03/12 01:54:23;;;;;;;8.45;5.53;;;0.00;48.00;;;-1.32;34.49;95682.28;5053184;28;20627;-83
2022/03/12 01:56:53;;;;;;;8.30;5.65;;;0.00;48.00;;;-1.29;34.60;95686.41;5025029;28;20249;-84
2022/03/12 01:59:21;;;;;;;7.85;5.22;;;0.00;48.00;;;-1.33;34.59;95682.38;5020192;28;20232;-84
2022/03/12 02:01:57;;;;;;;8.38;5.20;;;0.00;47.90;;;-1.27;34.43;95684.53;5035036;28;20215;-84
2022/03/12 02:04:29;;;;;;;7.63;5.38;;;0.00;47.80;;;-1.25;34.46;95689.59;5037474;28;20212;-83
2022/03/12 02:07:00;;;;;;;9.43;5.50;;;0.00;47.80;;;-1.23;34.42;95692.88;5036030;28;20204;-83
2022/03/12 02:09:27;;;;;;;10.63;5.10;;;0.00;47.80;;;-1.24;34.27;95691.25;5000760;28;20248;-83
2022/03/12 02:11:54;;;;;;;8.50;5.40;;;0.00;47.60;;;-1.25;34.46;95693.00;5022251;28;20285;-83
2022/03/12 02:14:25;;;;;;;8.73;5.53;;;0.10;47.70;;;-1.20;33.92;95690.94;5049062;28;20287;-84
2022/03/12 02:17:00;;;;;;;7.70;4.80;;;0.10;47.60;;;-1.19;34.22;95691.78;5033118;28;20185;-84
2022/03/12 02:19:30;;;;;;;7.32;4.97;;;0.10;47.50;;;-1.21;34.12;95689.31;5011072;28;20242;-84
2022/03/12 02:22:16;;;;;;;8.52;5.00;;;0.10;47.50;;;-1.22;34.20;95677.38;5051095;28;20193;-83
2022/03/12 02:24:43;;;;;;;9.95;5.18;;;0.10;47.50;;;-1.17;34.17;95682.22;5025028;28;20228;-84
2022/03/12 02:27:11;;;;;;;8.65;5.20;;;0.10;47.40;;;-1.15;33.95;95685.50;5040458;28;20197;-83
2022/03/12 02:29:40;;;;;;;9.40;5.30;;;0.10;47.30;;;-1.11;34.10;95686.97;5026064;28;20263;-84
2022/03/12 02:32:10;;;;;;;10.57;5.03;;;0.10;47.10;;;-1.10;33.86;95680.06;5035759;28;20196;-83
2022/03/12 02:34:46;;;;;;;6.05;4.07;;;0.10;46.90;;;-1.11;33.67;95676.66;5035427;28;20701;-83
2022/03/12 02:37:25;;;;;;;8.27;4.60;;;0.20;46.70;;;-1.01;33.61;95687.19;5012987;28;20199;-84
2022/03/12 02:39:52;;;;;;;9.15;4.85;;;0.20;46.60;;;-0.97;33.56;95681.69;5036591;28;20216;-84
2022/03/12 02:42:20;;;;;;;7.25;4.72;;;0.20;46.60;;;-0.88;33.47;95684.59;5035839;28;20310;-83
2022/03/12 02:44:49;;;;;;;7.97;4.75;;;0.30;46.70;;;-0.85;33.08;95674.91;5029348;28;20235;-84
2022/03/12 02:47:23;;;;;;;9.73;4.97;;;0.30;46.80;;;-0.82;33.22;95666.16;5047969;28;20201;-84
2022/03/12 02:49:58;;;;;;;8.18;5.20;;;0.30;46.70;;;-0.76;33.18;95683.78;5048445;28;20251;-84
2022/03/12 02:52:29;;;;;;;7.75;4.75;;;0.40;46.80;;;-0.69;33.18;95679.06;5015801;28;20618;-83
2022/03/12 02:54:59;;;;;;;7.82;4.70;;;0.40;46.80;;;-0.66;32.84;95689.13;4998486;28;20271;-83
2022/03/12 02:57:28;;;;;;;7.85;4.38;;;0.50;46.90;;;-0.65;32.81;95680.47;5015731;28;20713;-84
2022/03/12 03:00:03;;;;;;;7.40;4.85;;;0.50;46.90;;;-0.67;32.93;95682.34;5015666;28;20201;-84
2022/03/12 03:02:40;;;;;;;9.88;5.10;;;0.50;46.90;;;-0.66;32.83;95683.97;5032673;28;20240;-84
2022/03/12 03:05:30;;;;;;;8.20;4.65;;;0.50;46.90;;;-0.65;32.68;95688.22;5050329;28;20227;-84
2022/03/12 03:08:10;;;;;;;6.95;4.75;;;0.50;47.30;;;-0.66;32.80;95695.13;5030316;28;20232;-84
2022/03/12 03:10:43;;;;;;;8.45;4.60;;;0.60;46.50;;;-0.79;32.70;95670.28;5015949;28;20736;-84
2022/03/12 03:13:16;;;;;;;8.63;4.90;;;0.60;46.80;;;-0.67;32.49;95698.63;5016285;28;20219;-83
2022/03/12 03:15:47;;;;;;;7.05;4.80;;;0.60;47.50;;;-0.66;32.59;95696.84;5040382;28;20204;-83
2022/03/12 03:18:22;;;;;;;8.68;5.28;;;0.60;46.50;;;-0.67;32.66;95708.94;5051782;28;20765;-84
2022/03/12 03:20:51;;;;;;;7.20;4.50;;;0.60;46.30;;;-0.82;32.71;95685.03;5034115;28;20560;-83
2022/03/12 03:23:23;;;;;;;7.97;4.68;;;0.60;46.30;;;-0.68;32.53;95707.28;5035406;28;20247;-84
2022/03/12 03:25:51;;;;;;;7.18;4.72;;;0.60;46.30;;;-0.78;32.44;95692.53;5015197;28;20224;-84
2022/03/12 03:28:18;;;;;;;7.07;4.55;;;0.60;46.30;;;-0.72;32.58;95715.31;5016120;28;20224;-83
2022/03/12 03:30:46;;;;;;;7.85;4.57;;;0.60;47.50;;;-0.74;32.73;95707.69;5051257;28;20231;-83
2022/03/12 03:33:17;;;;;;;7.72;4.55;;;0.60;46.20;;;-0.81;33.03;95714.16;5015298;28;20589;-84
2022/03/12 03:35:45;;;;;;;8.10;4.60;;;0.50;46.20;;;-0.78;33.06;95708.84;5015847;28;20281;-83
2022/03/12 03:38:14;;;;;;;8.75;5.35;;;0.50;46.30;;;-0.81;32.65;95720.16;5015298;28;20381;-84
2022/03/12 03:40:43;;;;;;;8.73;5.03;;;0.50;46.30;;;-0.85;32.55;95715.31;5015030;28;20243;-84
2022/03/12 03:43:18;;;;;;;6.90;4.80;;;0.50;46.40;;;-0.83;32.64;95708.28;5049387;28;20239;-84
2022/03/12 03:45:49;;;;;;;8.45;5.32;;;0.50;46.30;;;-0.82;32.62;95722.81;5035020;28;20496;-84
2022/03/12 03:48:20;;;;;;;6.70;4.75;;;0.50;46.30;;;-0.86;32.73;95716.25;5038187;28;20208;-84
2022/03/12 03:50:49;;;;;;;6.65;5.00;;;0.50;46.50;;;-0.88;32.68;95724.06;5039168;28;20185;-84
2022/03/12 03:53:24;;;;;;;8.93;5.18;;;0.50;46.50;;;-0.94;32.76;95706.44;5051773;28;20221;-84
2022/03/12 03:55:54;;;;;;;6.95;4.88;;;0.40;46.70;;;-0.93;32.63;95718.38;5052121;28;20196;-83
2022/03/12 03:58:21;;;;;;;8.80;5.40;;;0.40;46.60;;;-1.05;32.74;95701.16;5038989;28;20309;-84
2022/03/12 04:01:06;;;;;;;9.35;4.80;;;0.40;46.50;;;-0.98;32.91;95710.13;5056352;28;20196;-83
2022/03/12 04:03:33;;;;;;;9.95;5.45;;;0.50;46.60;;;-1.05;33.03;95702.00;5021420;28;20215;-84
2022/03/12 04:06:03;;;;;;;8.98;4.75;;;0.30;46.60;;;-1.02;32.96;95712.09;5054872;28;20657;-84
2022/03/12 04:08:33;;;;;;;7.80;5.20;;;0.30;46.70;;;-1.05;32.64;95706.31;5038463;28;20269;-84
2022/03/12 04:11:05;;;;;;;8.18;5.35;;;0.30;46.70;;;-1.07;32.66;95709.00;5030435;28;20201;-82
2022/03/12 04:13:33;;;;;;;10.25;5.35;;;0.30;46.70;;;-1.06;33.05;95702.09;5026385;28;20223;-83
2022/03/12 04:16:02;;;;;;;10.85;5.70;;;0.30;46.70;;;-1.11;32.96;95688.69;5054207;28;20198;-85
2022/03/12 04:18:29;;;;;;;9.05;5.35;;;0.30;46.70;;;-1.09;32.89;95694.56;5022142;28;20228;-83
2022/03/12 04:20:57;;;;;;;8.80;5.50;;;0.20;46.60;;;-1.09;32.97;95692.00;5030272;28;20667;-84
2022/03/12 04:23:25;;;;;;;10.48;5.57;;;0.20;46.60;;;-1.10;32.86;95690.34;5036380;28;20209;-84
2022/03/12 04:25:55;;;;;;;9.20;5.63;;;0.20;47.90;;;-1.16;32.87;95689.84;5067491;28;20212;-84
2022/03/12 04:28:25;;;;;;;7.70;5.32;;;0.20;46.60;;;-1.18;32.98;95680.56;5018599;28;20213;-84
2022/03/12 04:30:52;;;;;;;11.82;5.25;;;0.20;46.60;;;-1.18;32.82;95696.81;5019132;28;20184;-84
2022/03/12 04:33:19;;;;;;;8.05;4.82;;;0.10;46.50;;;-1.22;32.80;95681.66;5049257;28;20265;-84
2022/03/12 04:35:48;;;;;;;8.55;5.55;;;0.10;46.50;;;-1.23;33.06;95678.28;5038204;28;20231;-84
2022/03/12 04:38:17;;;;;;;7.43;4.72;;;0.10;46.50;;;-1.25;32.92;95690.41;5038296;28;20651;-84
2022/03/12 04:40:46;;;;;;;7.97;4.88;;;0.10;46.50;;;-1.29;32.86;95686.41;5039578;28;20193;-83
2022/03/12 04:43:18;;;;;;;8.18;5.50;;;0.10;46.50;;;-1.31;33.18;95688.25;5022801;28;20215;-84
2022/03/12 04:45:48;;;;;;;7.70;4.90;;;0.10;46.60;;;-1.32;32.98;95686.59;5037974;28;20248;-83
2022/03/12 04:48:20;;;;;;;7.85;4.75;;;0.00;46.40;;;-1.34;32.98;95697.00;5038240;28;20482;-84
2022/03/12 04:50:50;;;;;;;10.05;5.85;;;0.00;46.40;;;-1.36;32.73;95709.13;5050010;28;20219;-84
2022/03/12 04:53:19;;;;;;;9.48;5.45;;;0.00;46.40;;;-1.38;33.03;95700.69;5018060;28;20216;-84
2022/03/12 04:55:49;;;;;;;7.80;5.28;;;0.00;46.40;;;-1.46;32.98;95690.88;5051439;28;20604;-83
2022/03/12 04:58:17;;;;;;;8.95;5.35;;;0.00;46.40;;;-1.43;33.22;95700.16;5020419;28;20303;-85
2022/03/12 05:00:46;;;;;;;10.63;5.00;;;-0.10;46.30;;;-1.45;32.71;95702.00;5038795;28;20197;-84
2022/03/12 05:03:20;;;;;;;6.97;5.10;;;-0.10;46.30;;;-1.47;33.05;95696.13;5016519;28;20223;-83
2022/03/12 05:05:51;;;;;;;10.73;5.35;;;-0.10;46.30;;;-1.50;33.09;95697.16;5000984;28;20240;-84
2022/03/12 05:08:19;;;;;;;8.85;5.28;;;-0.10;46.30;;;-1.51;33.05;95694.69;5001690;28;20316;-84
2022/03/12 05:10:51;;;;;;;8.70;5.40;;;-0.20;46.20;;;-1.55;33.09;95701.78;5039660;28;20235;-84
2022/03/12 05:13:27;;;;;;;10.30;5.55;;;-0.20;46.20;;;-1.55;32.62;95708.66;5035162;28;20581;-83
2022/03/12 05:16:06;;;;;;;8.98;5.68;;;-0.20;46.20;;;-1.58;32.76;95708.88;5016630;28;20196;-84
2022/03/12 05:18:40;;;;;;;9.85;5.05;;;-0.20;46.20;;;-1.65;33.16;95719.53;5018704;28;20243;-84
2022/03/12 05:21:07;;;;;;;9.88;5.05;;;-0.20;46.20;;;-1.72;33.01;95707.16;5051557;28;20196;-84
2022/03/12 05:23:34;;;;;;;9.32;5.35;;;-0.30;46.10;;;-1.63;33.18;95735.69;5016292;28;20236;-85
2022/03/12 05:26:02;;;;;;;11.73;6.25;;;-0.20;46.30;;;-1.65;33.16;95731.56;5036733;28;20248;-85
2022/03/12 05:28:32;;;;;;;7.53;5.35;;;-0.30;46.10;;;-1.63;33.17;95734.88;5037339;28;20310;-84
2022/03/12 05:31:04;;;;;;;8.90;4.88;;;-0.30;46.10;;;-1.66;33.21;95741.03;5021291;28;20537;-85
2022/03/12 05:33:34;;;;;;;9.20;5.95;;;-0.30;46.10;;;-1.64;33.51;95746.06;5036477;28;20376;-84
2022/03/12 05:36:03;;;;;;;9.63;5.57;;;-0.30;46.10;;;-1.66;33.20;95743.59;5035772;28;20193;-84
2022/03/12 05:38:36;;;;;;;8.70;5.70;;;-0.30;46.10;;;-1.64;33.12;95740.94;5017449;28;20220;-84
2022/03/12 05:41:11;;;;;;;9.38;5.78;;;-0.30;46.10;;;-1.62;33.22;95737.34;5017890;28;20213;-84
2022/03/12 05:43:48;;;;;;;13.25;6.75;;;-0.30;46.10;;;-1.64;33.15;95749.47;5078364;28;20226;-84
2022/03/12 05:46:17;;;;;;;11.43;7.60;;;-0.20;46.20;;;-1.56;33.10;95740.44;5041640;28;20235;-84
2022/03/12 05:48:46;;;;;;;10.60;6.70;;;-0.30;46.10;;;-1.55;33.14;95744.66;5025137;28;20224;-84
2022/03/12 05:51:14;;;;;;;13.07;7.68;;;-0.30;46.10;;;-1.47;33.24;95747.59;5016899;28;20619;-84
2022/03/12 05:53:42;;;;;;;13.23;7.70;;;-0.30;46.10;;;-1.49;33.07;95750.28;5016684;28;20307;-84
2022/03/12 05:56:09;;;;;;;13.20;6.80;;;-0.30;46.20;;;-1.40;33.06;95751.44;5017657;28;20617;-85
2022/03/12 05:58:39;;;;;;;10.77;6.93;;;-0.20;46.20;;;-1.37;33.14;95746.06;5016535;28;20230;-84
2022/03/12 06:01:07;;;;;;;13.18;8.40;;;-0.20;46.30;;;-1.33;33.13;95754.41;5016430;28;20193;-84
2022/03/12 06:03:35;;;;;;;13.07;7.88;;;-0.20;46.30;;;-1.30;33.15;95770.50;5016813;28;20204;-85
2022/03/12 06:06:03;;;;;;;16.05;9.13;;;-0.20;46.30;;;-1.27;33.31;95766.91;5017340;28;20221;-84
2022/03/12 06:08:32;;;;;;;13.82;8.32;;;-0.10;46.50;;;-1.26;33.47;95765.16;5034768;28;20243;-84
2022/03/12 06:11:00;;;;;;;18.00;9.02;;;-0.10;46.40;;;-1.19;33.66;95767.25;5007792;28;20212;-84
2022/03/12 06:13:30;;;;;;;13.43;7.75;;;-0.10;46.50;;;-1.17;33.45;95755.09;5047978;28;20239;-84
2022/03/12 06:15:59;;;;;;;14.85;7.75;;;-0.10;47.80;;;-1.14;33.41;95754.88;5022032;28;20658;-85
2022/03/12 06:18:34;;;;;;;12.27;7.90;;;0.00;46.70;;;-1.16;33.30;95743.03;5030773;28;20300;-84
2022/03/12 06:21:06;;;;;;;13.68;7.63;;;0.00;47.00;;;-1.02;33.55;95766.16;5015803;28;20238;-83
2022/03/12 06:23:34;;;;;;;11.32;6.22;;;0.00;47.00;;;-0.97;33.35;95768.44;5034388;28;20637;-84
2022/03/12 06:26:03;;;;;;;12.70;7.72;;;0.10;47.00;;;-0.91;33.49;95769.81;5008735;28;20224;-85
2022/03/12 06:28:33;;;;;;;14.45;7.82;;;0.10;47.00;;;-0.88;33.55;95769.59;5030521;28;20224;-85
2022/03/12 06:31:01;;;;;;;16.92;8.23;;;0.10;47.10;;;-0.92;33.57;95750.94;5006760;28;20203;-84
2022/03/12 06:33:30;;;;;;;11.77;7.32;;;0.20;47.20;;;-0.78;33.83;95752.63;5013893;28;20590;-84
2022/03/12 06:35:57;;;;;;;15.95;8.98;;;0.30;47.40;;;-0.74;33.64;95758.41;5000018;28;20200;-84
2022/03/12 06:38:26;;;;;;;12.75;7.82;;;0.30;47.60;;;-0.82;33.39;95743.44;5050713;28;20224;-85
2022/03/12 06:40:56;;;;;;;13.88;8.05;;;0.30;47.40;;;-0.62;33.70;95761.88;5027494;28;20208;-85
2022/03/12 06:43:25;;;;;;;12.77;7.57;;;0.40;47.40;;;-0.57;33.67;95770.97;5025400;28;20303;-85
2022/03/12 06:45:53;;;;;;;12.43;7.35;;;0.40;47.50;;;-0.51;33.52;95783.44;5015288;28;20228;-84
2022/03/12 06:48:23;;;;;;;12.32;7.35;;;0.50;47.50;;;-0.43;33.73;95771.81;5024032;28;20227;-84
2022/03/12 06:50:50;;;;;;;12.18;7.22;;;0.50;47.30;;;-0.41;33.59;95772.53;5038689;28;20239;-84
2022/03/12 06:53:17;;;;;;;12.15;7.28;;;0.50;48.50;;;-0.30;33.55;95788.09;5021049;28;20313;-84
2022/03/12 06:55:45;;;;;;;12.75;7.13;;;0.60;47.10;;;-0.25;33.53;95790.38;5020516;28;20189;-84
2022/03/12 06:58:13;;;;;;;11.48;6.68;;;0.70;47.20;;;-0.19;33.52;95785.63;5046812;28;20307;-84
2022/03/12 07:00:40;;;;;;;11.20;6.50;;;0.70;47.10;;;-0.12;33.30;95790.34;5020954;28;20211;-85
2022/03/12 07:03:11;;;;;;;10.88;6.82;;;0.70;47.10;;;-0.09;33.37;95785.00;5046744;28;20224;-84
2022/03/12 07:05:38;;;;;;;10.70;6.57;;;0.80;47.30;;;-0.01;33.17;95791.28;5021814;28;20224;-85
2022/03/12 07:08:05;;;;;;;9.85;6.75;;;0.80;47.20;;;0.07;33.24;95789.94;5040494;28;20257;-85
2022/03/12 07:10:33;;;;;;;11.32;6.65;;;0.90;47.30;;;0.13;33.04;95789.50;5022230;28;20238;-85
2022/03/12 07:13:00;;;;;;;29.45;17.02;;;0.90;47.30;;;0.20;33.22;95790.75;5013875;28;20291;-84
2022/03/12 07:15:29;;;;;;;108.63;46.75;;;1.00;47.30;;;0.24;33.00;95781.84;5004338;28;20295;-84
2022/03/12 07:17:56;;;;;;;36.28;19.92;;;1.10;47.40;;;0.34;33.04;95800.09;5014565;28;20189;-84
2022/03/12 07:20:26;;;;;;;15.23;9.85;;;1.10;47.50;;;0.41;33.14;95793.56;5014015;28;20207;-85
2022/03/12 07:22:53;;;;;;;16.52;9.90;;;1.20;48.80;;;0.47;32.91;95785.41;5016739;28;20196;-84
2022/03/12 07:25:21;;;;;;;15.27;10.07;;;1.30;47.60;;;0.55;32.84;95792.63;5018980;28;20315;-85
2022/03/12 07:27:48;;;;;;;14.85;9.32;;;1.30;47.60;;;0.64;32.59;95797.13;5002518;28;20553;-84
2022/03/12 07:30:16;;;;;;;14.25;8.88;;;1.40;47.70;;;0.71;32.62;95787.19;5016547;28;20748;-83
2022/03/12 07:32:44;;;;;;;15.20;8.80;;;1.40;47.70;;;0.77;32.44;95784.19;5008358;28;20260;-80
2022/03/12 07:35:15;;;;;;;12.02;6.78;;;1.50;47.50;;;0.82;32.34;95773.53;5024381;28;20224;-80
2022/03/12 07:37:44;;;;;;;11.13;6.63;;;1.60;47.50;;;0.97;32.46;95784.50;5025602;28;20200;-81
2022/03/12 07:40:14;;;;;;;10.98;7.10;;;1.60;47.30;;;0.97;32.48;95779.34;5041527;28;20238;-81
2022/03/12 07:42:42;;;;;;;12.18;6.80;;;1.70;47.30;;;1.14;32.58;95790.22;5050077;28;20284;-83
2022/03/12 07:45:12;;;;;;;10.68;6.63;;;1.80;47.20;;;1.23;32.06;95784.34;5024453;28;20598;-85
2022/03/12 07:47:39;;;;;;;10.60;6.50;;;1.90;47.10;;;1.24;32.38;95783.44;5031493;28;20208;-84
2022/03/12 07:50:09;;;;;;;10.50;5.40;;;2.00;47.20;;;1.44;32.14;95802.63;5018687;28;20270;-84
2022/03/12 07:52:37;;;;;;;8.95;5.82;;;2.10;46.60;;;1.53;31.66;95796.78;5019252;28;20203;-85
2022/03/12 07:55:06;;;;;;;12.45;5.88;;;2.10;46.50;;;1.62;31.56;95805.59;5030689;28;20748;-85
2022/03/12 09:37:55;;;;;;;1.70;1.60;;;0.90;47.80;;;0.32;32.35;95765.84;5089601;27;20560;-83
2022/03/12 09:40:23;;;;;;;1.48;1.48;;;1.00;47.90;;;1.02;32.52;95763.50;5058557;28;20249;-83
2022/03/12 09:42:50;;;;;;;1.52;1.48;;;1.30;47.60;;;1.65;32.21;95758.00;5035702;28;20737;-84
2022/03/12 09:45:22;;;;;;;1.15;1.15;;;1.70;48.00;;;2.23;31.90;95755.31;5051855;28;20234;-85
2022/03/12 09:47:50;;;;;;;1.33;1.23;;;2.20;48.30;;;2.74;31.37;95746.16;5039574;28;20200;-85
2022/03/12 09:50:18;;;;;;;1.90;1.50;;;2.70;47.90;;;3.17;31.16;95744.47;5068140;28;20209;-86
2022/03/12 09:52:45;;;;;;;1.20;1.20;;;3.10;47.60;;;3.52;31.09;95745.94;5051780;28;20605;-86
2022/03/12 09:55:13;;;;;;;1.20;1.20;;;3.40;47.20;;;3.83;30.83;95744.19;5052158;28;20219;-83
2022/03/12 09:57:44;;;;;;;1.95;1.15;;;3.80;47.10;;;4.08;30.95;95736.09;5046718;28;20247;-83
2022/03/12 10:00:13;;;;;;;1.17;1.17;;;4.10;46.60;;;4.33;30.54;95740.81;5051235;28;20692;-84
2022/03/12 10:02:40;;;;;;;1.00;1.00;;;4.40;46.30;;;4.52;29.50;95730.59;5062010;28;20290;-84
2022/03/12 10:05:13;;;;;;;0.90;0.90;;;4.60;45.70;;;4.67;29.69;95723.25;5023251;28;20235;-84
2022/03/12 10:07:44;;;;;;;1.00;1.00;;;4.80;45.60;;;4.79;29.64;95715.19;5068987;28;20191;-83
2022/03/12 10:10:17;;;;;;;0.95;0.95;;;5.00;44.90;;;4.93;29.47;95707.94;5037317;28;20274;-84
2022/03/12 10:12:46;;;;;;;0.80;0.80;;;5.20;44.50;;;5.04;29.23;95700.00;5059875;28;20301;-85
2022/03/12 10:15:15;;;;;;;0.70;0.70;;;5.40;45.10;;;5.17;28.92;95715.31;5049744;28;20220;-85
2022/03/12 10:17:44;;;;;;;0.90;0.90;;;5.50;44.30;;;5.23;29.06;95709.56;5053054;28;20737;-84
2022/03/12 10:20:12;;;;;;;0.90;0.90;;;5.60;44.40;;;5.33;28.69;95711.34;5048587;28;20342;-84
2022/03/12 10:22:43;;;;;;;1.00;1.00;;;5.70;44.20;;;5.37;28.48;95710.94;5052817;28;20201;-84
2022/03/12 10:25:12;;;;;;;0.80;0.80;;;5.80;44.20;;;5.49;28.50;95718.56;5056100;28;20277;-82
2022/03/12 10:27:42;;;;;;;0.90;0.90;;;5.90;44.10;;;5.57;28.74;95716.91;5051432;28;20238;-84
2022/03/12 10:30:11;;;;;;;0.90;0.90;;;6.00;44.10;;;5.65;28.75;95708.41;5042789;28;20219;-84
2022/03/12 10:32:45;;;;;;;0.80;0.80;;;6.10;43.90;;;5.69;28.81;95703.72;5031316;28;20204;-84
2022/03/12 10:35:19;;;;;;;0.80;0.80;;;6.10;43.10;;;5.79;28.44;95701.09;5047223;28;20220;-84
2022/03/12 10:37:49;;;;;;;0.80;0.80;;;6.20;43.60;;;5.86;28.42;95703.00;5063992;28;20306;-83
2022/03/12 10:40:19;;;;;;;0.90;0.90;;;6.30;43.70;;;5.86;28.08;95681.31;5034930;28;20239;-84
2022/03/12 10:43:15;;;;;;;0.80;0.80;;;6.40;43.70;;;6.00;28.54;95688.69;5065403;28;20200;-84
2022/03/12 10:45:46;;;;;;;0.70;0.70;;;6.40;43.40;;;5.97;28.37;95667.31;5048705;28;20193;-84
2022/03/12 10:48:19;;;;;;;0.80;0.80;;;6.50;43.50;;;6.13;28.09;95675.34;5040304;28;20231;-83
2022/03/12 10:50:50;;;;;;;0.90;0.90;;;6.60;43.30;;;6.21;27.79;95687.63;5038454;28;20197;-84
2022/03/12 10:53:18;;;;;;;0.70;0.70;;;6.70;43.40;;;6.29;28.01;95686.94;5054075;28;20228;-83
2022/03/12 10:55:53;;;;;;;0.80;0.80;;;6.70;43.40;;;6.28;28.27;95670.47;5037699;28;20204;-84
2022/03/12 10:58:27;;;;;;;0.70;0.70;;;6.80;43.00;;;6.47;28.07;95684.34;5053665;28;20591;-84
2022/03/12 11:01:00;;;;;;;0.80;0.80;;;6.90;43.10;;;6.51;28.03;95673.47;5016496;28;20224;-83
2022/03/12 11:03:37;;;;;;;0.80;0.80;;;6.90;43.10;;;6.62;27.82;95684.66;5053015;28;20247;-84
2022/03/12 11:06:06;;;;;;;0.90;0.90;;;7.00;43.20;;;6.67;27.76;95669.41;5037815;28;20204;-84
2022/03/12 11:08:34;;;;;;;0.90;0.90;;;7.10;42.70;;;6.74;27.65;95667.84;5050145;28;20223;-84
2022/03/12 11:11:13;;;;;;;0.80;0.80;;;7.20;43.00;;;6.78;27.70;95674.38;5020900;28;20227;-84
2022/03/12 11:13:44;;;;;;;0.70;0.70;;;7.30;42.70;;;6.84;27.63;95667.75;5035744;28;20255;-83
2022/03/12 11:16:28;;;;;;;0.70;0.70;;;7.30;42.90;;;6.89;27.79;95681.16;5053826;28;20230;-85
2022/03/12 11:19:07;;;;;;;0.70;0.70;;;7.30;42.10;;;6.95;27.47;95677.94;5035436;28;20228;-83
2022/03/12 11:21:51;;;;;;;0.80;0.80;;;7.40;42.40;;;7.00;27.18;95680.91;5024860;28;20402;-84
2022/03/12 11:24:26;;;;;;;0.70;0.70;;;7.50;41.80;;;7.08;27.23;95676.75;5051898;28;20307;-84
2022/03/12 11:26:58;;;;;;;0.70;0.70;;;7.50;42.10;;;7.16;26.84;95675.00;5029872;28;20200;-84
2022/03/12 11:29:28;;;;;;;0.90;0.90;;;7.50;41.90;;;7.30;27.03;95665.00;5002301;28;20267;-84
2022/03/12 11:32:16;;;;;;;0.70;0.70;;;7.60;42.30;;;7.46;27.31;95670.34;5033871;28;20245;-83
2022/03/12 11:34:44;;;;;;;0.90;0.90;;;7.70;42.10;;;7.63;27.00;95665.19;5000587;28;20569;-83
2022/03/12 11:37:21;;;;;;;0.60;0.60;;;7.80;41.90;;;7.72;27.01;95655.66;5016766;28;20228;-83
2022/03/12 11:39:56;;;;;;;0.65;0.65;;;7.90;41.40;;;7.90;26.92;95661.59;5016789;28;20228;-84
2022/03/12 11:42:27;;;;;;;0.57;0.57;;;8.10;42.00;;;8.02;27.30;95647.28;5020104;28;20321;-85
2022/03/12 11:44:56;;;;;;;0.80;0.80;;;8.20;42.40;;;8.26;26.63;95653.56;5033981;28;20258;-84
2022/03/12 11:47:27;;;;;;;0.70;0.70;;;8.30;42.00;;;8.44;26.18;95650.84;5033393;28;20196;-83
2022/03/12 11:49:57;;;;;;;0.70;0.70;;;8.40;42.00;;;8.60;26.29;95639.63;5016920;28;20259;-84
2022/03/12 11:52:25;;;;;;;0.70;0.70;;;8.60;41.70;;;8.72;26.34;95629.66;5036147;28;20216;-84
2022/03/12 11:54:56;;;;;;;0.80;0.80;;;8.70;41.70;;;8.97;26.07;95632.28;5051266;28;20301;-85
2022/03/12 11:57:32;;;;;;;0.80;0.80;;;8.80;41.60;;;9.16;26.01;95636.38;5016789;28;20220;-84
2022/03/12 12:00:02;;;;;;;0.80;0.80;;;9.00;41.30;;;9.34;26.24;95635.34;5019349;28;20215;-85
2022/03/12 12:02:34;;;;;;;0.80;0.80;;;9.20;41.90;;;9.51;25.91;95630.91;5053129;28;20630;-83
2022/03/12 12:05:12;;;;;;;0.60;0.60;;;9.30;41.60;;;9.70;25.88;95630.53;5024344;28;20224;-84
2022/03/12 12:07:43;;;;;;;0.80;0.80;;;9.40;41.40;;;9.93;25.81;95629.81;5041334;28;20241;-83
2022/03/12 12:10:17;;;;;;;0.70;0.70;;;9.60;42.00;;;10.11;25.66;95640.06;5019132;28;20215;-84
2022/03/12 12:12:49;;;;;;;0.70;0.70;;;9.70;41.70;;;10.27;25.67;95635.75;5018919;28;20309;-84
2022/03/12 12:15:22;;;;;;;0.70;0.70;;;9.90;41.60;;;10.45;25.16;95615.34;5035539;28;20242;-85
2022/03/12 12:17:51;;;;;;;0.60;0.60;;;10.00;39.60;;;10.70;25.27;95629.09;5033864;28;20223;-84
2022/03/12 12:20:21;;;;;;;0.60;0.60;;;10.20;39.60;;;10.88;24.77;95620.13;5022902;28;20258;-84